createdAt,value
2023-01-09T00:05:20.966Z,100967.70
2023-01-09T00:07:50.187Z,100967.33
2023-01-09T00:10:18.835Z,100966.30
2023-01-09T00:12:47.275Z,100959.86
2023-01-09T00:15:15.799Z,100960.88
2023-01-09T00:17:44.405Z,100958.84
2023-01-09T00:20:13.884Z,100959.06
2023-01-09T00:22:42.741Z,100956.21
2023-01-09T00:25:11.352Z,100956.73
2023-01-09T00:27:39.854Z,100950.04
2023-01-09T00:30:10.265Z,100946.35
2023-01-09T00:32:38.746Z,100943.70
2023-01-09T00:35:12.038Z,100951.03
2023-01-09T00:37:40.567Z,100944.77
2023-01-09T00:40:10.444Z,100938.09
2023-01-09T00:42:39.017Z,100935.23
2023-01-09T00:45:18.465Z,100931.66
2023-01-09T00:47:52.074Z,100928.73
2023-01-09T00:50:27.185Z,100923.57
2023-01-09T00:53:00.968Z,100918.63
2023-01-09T00:55:29.632Z,100912.11
2023-01-09T00:57:58.102Z,100910.12
2023-01-09T01:00:26.669Z,100910.05
2023-01-09T01:02:55.244Z,100907.27
2023-01-09T01:05:42.426Z,100896.49
2023-01-09T01:08:18.775Z,100894.54
2023-01-09T01:10:49.237Z,100887.15
2023-01-09T01:13:17.801Z,100881.31
2023-01-09T01:15:47.420Z,100875.16
2023-01-09T01:18:15.922Z,100875.29
2023-01-09T01:20:45.506Z,100867.80
2023-01-09T01:23:13.986Z,100866.94
2023-01-09T01:25:43.044Z,100867.31
2023-01-09T01:28:11.632Z,100861.34
2023-01-09T01:30:42.549Z,100858.60
2023-01-09T01:33:11.922Z,100850.29
2023-01-09T01:35:40.407Z,100850.15
2023-01-09T01:38:08.862Z,100844.17
2023-01-09T01:40:38.483Z,100842.01
2023-01-09T01:43:07.072Z,100836.14
2023-01-09T01:45:36.181Z,100830.41
2023-01-09T01:48:15.301Z,100833.26
2023-01-09T01:50:48.519Z,100832.99
2023-01-09T01:53:18.040Z,100830.21
2023-01-09T01:56:11.095Z,100822.73
2023-01-09T01:58:48.787Z,100819.15
2023-01-09T02:01:19.147Z,100816.35
2023-01-09T02:03:48.557Z,100816.55
2023-01-09T02:06:17.323Z,100813.95
2023-01-09T02:08:46.947Z,100813.65
2023-01-09T02:11:18.768Z,100809.17
2023-01-09T02:13:48.343Z,100811.94
2023-01-09T02:16:30.509Z,100802.63
2023-01-09T02:19:26.235Z,100791.02
2023-01-09T02:22:22.559Z,100788.64
2023-01-09T02:25:20.593Z,100787.23
2023-01-09T02:28:45.470Z,100777.91
2023-01-09T02:31:34.746Z,100769.71
2023-01-09T02:34:36.805Z,100759.89
2023-01-09T02:37:13.169Z,100756.41
2023-01-09T02:40:21.118Z,100752.94
2023-01-09T02:42:51.111Z,100750.48
2023-01-09T02:45:19.751Z,100754.51
2023-01-09T02:47:48.234Z,100752.65
2023-01-09T02:51:01.663Z,100751.04
2023-01-09T02:53:50.344Z,100748.42
2023-01-09T02:56:58.557Z,100743.14
2023-01-09T03:00:00.299Z,100737.19
2023-01-09T03:02:57.958Z,100736.09
2023-01-09T03:05:57.496Z,100733.83
2023-01-09T03:08:36.998Z,100730.23
2023-01-09T03:11:08.157Z,100730.25
2023-01-09T03:13:57.815Z,100727.43
2023-01-09T03:16:33.551Z,100722.47
2023-01-09T03:19:04.539Z,100719.16
2023-01-09T03:21:34.581Z,100720.27
2023-01-09T03:24:03.789Z,100718.27
2023-01-09T03:26:32.522Z,100720.54
2023-01-09T03:29:01.105Z,100717.13
2023-01-09T03:31:30.019Z,100716.20
2023-01-09T03:33:58.505Z,100719.71
2023-01-09T03:36:27.235Z,100716.52
2023-01-09T03:38:55.832Z,100715.27
2023-01-09T03:41:24.412Z,100713.28
2023-01-09T03:43:52.955Z,100716.89
2023-01-09T03:46:21.585Z,100717.98
2023-01-09T03:48:50.080Z,100715.23
2023-01-09T03:51:18.492Z,100713.46
2023-01-09T03:53:46.969Z,100711.13
2023-01-09T03:56:15.620Z,100714.36
2023-01-09T03:58:44.145Z,100715.41
2023-01-09T04:01:13.196Z,100709.15
2023-01-09T04:03:42.071Z,100712.61
2023-01-09T04:06:10.523Z,100721.60
2023-01-09T04:08:39.042Z,100721.89
2023-01-09T04:11:08.191Z,100722.25
2023-01-09T04:13:36.606Z,100719.46
2023-01-09T04:16:05.740Z,100708.87
2023-01-09T04:18:34.251Z,100710.07
2023-01-09T04:21:02.715Z,100703.73
2023-01-09T04:23:31.265Z,100701.84
2023-01-09T04:25:59.715Z,100699.33
2023-01-09T04:28:28.159Z,100697.94
2023-01-09T04:30:56.703Z,100695.04
2023-01-09T04:33:25.223Z,100688.30
2023-01-09T04:35:53.702Z,100691.42
2023-01-09T04:38:22.289Z,100694.04
2023-01-09T04:40:50.779Z,100694.16
2023-01-09T04:43:19.384Z,100692.98
2023-01-09T04:45:47.984Z,100691.50
2023-01-09T04:48:16.971Z,100691.98
2023-01-09T04:50:45.576Z,100684.73
2023-01-09T04:53:14.201Z,100683.73
2023-01-09T04:55:43.288Z,100677.74
2023-01-09T04:58:11.731Z,100679.74
2023-01-09T05:00:40.266Z,100679.52
2023-01-09T05:03:08.721Z,100679.74
2023-01-09T05:05:37.234Z,100681.77
2023-01-09T05:08:06.220Z,100676.39
2023-01-09T05:10:34.723Z,100678.45
2023-01-09T05:13:03.182Z,100670.63
2023-01-09T05:15:31.663Z,100673.52
2023-01-09T05:18:00.235Z,100664.16
2023-01-09T05:20:28.769Z,100654.58
2023-01-09T05:22:57.219Z,100653.64
2023-01-09T05:25:25.726Z,100654.51
2023-01-09T05:27:54.225Z,100654.92
2023-01-09T05:30:22.690Z,100652.28
2023-01-09T05:32:51.177Z,100655.11
2023-01-09T05:35:20.438Z,100650.48
2023-01-09T05:37:49.007Z,100637.54
2023-01-09T05:40:17.953Z,100640.85
2023-01-09T05:42:46.419Z,100640.41
2023-01-09T05:45:14.983Z,100637.86
2023-01-09T05:47:45.459Z,100638.85
2023-01-09T05:50:15.304Z,100636.23
2023-01-09T05:52:43.836Z,100635.05
2023-01-09T05:55:13.606Z,100635.18
2023-01-09T05:57:42.428Z,100631.17
2023-01-09T06:00:11.871Z,100632.86
2023-01-09T06:02:40.466Z,100631.16
2023-01-09T06:05:09.883Z,100632.67
2023-01-09T06:07:40.756Z,100627.27
2023-01-09T06:10:15.069Z,100632.35
2023-01-09T06:12:49.196Z,100636.60
2023-01-09T06:15:18.052Z,100635.69
2023-01-09T06:17:47.002Z,100636.51
2023-01-09T06:20:15.680Z,100642.03
2023-01-09T06:22:45.551Z,100641.09
2023-01-09T06:25:14.144Z,100636.67
2023-01-09T06:27:42.588Z,100639.66
2023-01-09T06:30:11.938Z,100645.46
2023-01-09T06:32:40.602Z,100647.28
2023-01-09T06:35:09.967Z,100641.90
2023-01-09T06:37:38.465Z,100647.11
2023-01-09T06:40:07.848Z,100649.54
2023-01-09T06:42:36.382Z,100653.49
2023-01-09T06:45:05.614Z,100651.46
2023-01-09T06:47:34.146Z,100653.01
2023-01-09T06:50:02.693Z,100651.96
2023-01-09T06:52:31.239Z,100650.09
2023-01-09T06:54:59.796Z,100655.99
2023-01-09T06:57:28.326Z,100652.28
2023-01-09T06:59:56.823Z,100649.73
2023-01-09T07:02:25.315Z,100639.02
2023-01-09T07:04:53.819Z,100641.98
2023-01-09T07:07:22.721Z,100634.58
2023-01-09T07:09:51.397Z,100628.50
2023-01-09T07:12:20.037Z,100627.23
2023-01-09T07:14:48.504Z,100619.06
2023-01-09T07:17:16.992Z,100616.35
2023-01-09T07:19:45.460Z,100624.37
2023-01-09T07:22:14.045Z,100621.84
2023-01-09T07:24:44.527Z,100613.18
2023-01-09T07:27:13.020Z,100611.86
2023-01-09T07:29:41.483Z,100611.00
2023-01-09T07:32:10.079Z,100604.25
2023-01-09T07:34:38.638Z,100598.48
2023-01-09T07:37:07.207Z,100596.08
2023-01-09T07:39:35.809Z,100603.40
2023-01-09T07:42:04.588Z,100602.91
2023-01-09T07:44:33.722Z,100598.55
2023-01-09T07:47:02.342Z,100603.42
2023-01-09T07:49:30.843Z,100601.87
2023-01-09T07:52:00.016Z,100602.06
2023-01-09T07:54:28.684Z,100600.77
2023-01-09T07:56:57.343Z,100605.13
2023-01-09T07:59:27.377Z,100607.13
2023-01-09T08:01:57.013Z,100603.20
2023-01-09T08:04:25.536Z,100613.67
2023-01-09T08:06:54.247Z,100618.62
2023-01-09T08:09:22.884Z,100621.61
2023-01-09T08:11:51.580Z,100624.74
2023-01-09T08:14:20.255Z,100619.84
2023-01-09T08:16:48.859Z,100620.92
2023-01-09T08:19:17.401Z,100629.83
2023-01-09T08:21:45.895Z,100626.88
2023-01-09T08:24:14.416Z,100619.52
2023-01-09T08:26:42.953Z,100619.33
2023-01-09T08:29:11.702Z,100615.60
2023-01-09T08:31:40.779Z,100622.44
2023-01-09T08:34:09.596Z,100622.80
2023-01-09T08:36:38.082Z,100625.02
2023-01-09T08:39:06.629Z,100624.81
2023-01-09T08:41:53.518Z,100621.33
2023-01-09T08:44:40.685Z,100623.21
2023-01-09T08:47:09.559Z,100633.89
2023-01-09T08:49:39.241Z,100619.59
2023-01-09T08:52:08.123Z,100623.47
2023-01-09T08:54:37.140Z,100616.77
2023-01-09T08:57:07.191Z,100612.13
2023-01-09T08:59:35.779Z,100618.73
2023-01-09T09:02:04.328Z,100615.16
2023-01-09T09:04:32.811Z,100616.50
2023-01-09T09:18:03.353Z,100596.08
2023-01-09T09:20:36.714Z,100594.52
2023-01-09T09:23:06.770Z,100586.42
2023-01-09T09:25:38.572Z,100579.20
2023-01-09T09:28:07.880Z,100579.36
2023-01-09T09:30:39.008Z,100579.33
2023-01-09T09:33:07.511Z,100580.13
2023-01-09T09:35:36.889Z,100568.17
2023-01-09T09:38:06.181Z,100572.31
2023-01-09T09:41:08.197Z,100575.89
2023-01-09T09:44:26.035Z,100573.54
2023-01-09T09:47:06.717Z,100566.96
2023-01-09T09:50:16.637Z,100560.30
2023-01-09T09:53:21.231Z,100561.39
2023-01-09T09:55:51.169Z,100558.58
2023-01-09T09:58:39.344Z,100556.13
2023-01-09T10:01:11.683Z,100556.17
2023-01-09T10:04:00.915Z,100557.84
2023-01-09T10:06:44.704Z,100551.63
2023-01-09T10:09:28.434Z,100553.58
2023-01-09T10:12:18.607Z,100547.38
2023-01-09T10:14:47.252Z,100548.10
2023-01-09T10:17:30.956Z,100547.57
2023-01-09T10:21:00.322Z,100544.17
2023-01-09T10:24:10.802Z,100541.23
2023-01-09T10:26:48.765Z,100537.73
2023-01-09T10:29:36.834Z,100533.27
2023-01-09T10:32:27.594Z,100527.30
2023-01-09T10:35:47.083Z,100522.67
2023-01-09T10:38:24.675Z,100519.86
2023-01-09T10:41:14.427Z,100523.09
2023-01-09T10:43:53.707Z,100518.27
2023-01-09T10:46:37.564Z,100515.41
2023-01-09T10:49:17.356Z,100513.70
2023-01-09T10:51:50.635Z,100508.33
2023-01-09T10:54:23.703Z,100505.45
2023-01-09T10:57:02.657Z,100500.02
2023-01-09T10:59:31.267Z,100491.88
2023-01-09T11:02:00.230Z,100483.69
2023-01-09T11:04:37.349Z,100474.97
2023-01-09T11:07:42.351Z,100470.92
2023-01-09T11:10:13.976Z,100475.86
2023-01-09T11:12:42.941Z,100464.95
2023-01-09T11:15:17.266Z,100451.70
2023-01-09T11:17:47.481Z,100452.09
2023-01-09T11:20:17.745Z,100439.65
2023-01-09T11:22:58.464Z,100445.58
2023-01-09T11:25:29.439Z,100444.56
2023-01-09T11:28:07.076Z,100441.25
2023-01-09T11:31:02.950Z,100433.67
2023-01-09T11:33:38.034Z,100435.23
2023-01-09T11:36:13.739Z,100434.73
2023-01-09T11:38:50.475Z,100427.09
2023-01-09T11:41:25.923Z,100423.70
2023-01-09T11:43:58.833Z,100426.09
2023-01-09T11:46:34.572Z,100428.79
2023-01-09T11:49:21.061Z,100428.90
2023-01-09T11:52:26.825Z,100429.73
2023-01-09T11:55:06.793Z,100426.05
2023-01-09T11:57:35.433Z,100421.08
2023-01-09T12:00:25.612Z,100421.65
2023-01-09T12:03:29.268Z,100421.09
2023-01-09T12:06:26.122Z,100428.21
2023-01-09T12:09:01.526Z,100415.28
2023-01-09T12:11:57.000Z,100413.14
2023-01-09T12:15:15.021Z,100408.98
2023-01-09T12:18:23.857Z,100403.55
2023-01-09T12:21:20.318Z,100407.80
2023-01-09T12:24:19.756Z,100408.77
2023-01-09T12:27:20.403Z,100402.08
2023-01-09T12:30:30.621Z,100401.20
2023-01-09T12:33:30.986Z,100398.00
2023-01-09T12:36:34.973Z,100397.40
2023-01-09T12:39:45.573Z,100399.61
2023-01-09T12:42:26.201Z,100400.89
2023-01-09T12:45:28.244Z,100407.54
2023-01-09T12:48:27.211Z,100415.58
2023-01-09T12:51:40.555Z,100412.28
2023-01-09T12:54:23.959Z,100410.52
2023-01-09T12:57:01.482Z,100404.42
2023-01-09T12:59:56.628Z,100404.17
2023-01-09T13:02:51.661Z,100394.73
2023-01-09T13:05:32.072Z,100390.86
2023-01-09T13:08:14.941Z,100380.34
2023-01-09T13:10:53.866Z,100374.76
2023-01-09T13:13:39.226Z,100365.10
2023-01-09T13:16:16.614Z,100362.55
2023-01-09T13:18:56.320Z,100358.52
2023-01-09T13:21:28.179Z,100352.80
2023-01-09T13:24:04.219Z,100346.48
2023-01-09T13:27:16.416Z,100346.35
2023-01-09T13:29:50.737Z,100341.96
2023-01-09T13:32:31.648Z,100344.09
2023-01-09T13:35:01.717Z,100339.98
2023-01-09T13:37:37.301Z,100341.05
2023-01-09T13:40:26.885Z,100350.07
2023-01-09T13:43:05.370Z,100342.21
2023-01-09T13:45:39.959Z,100344.11
2023-01-09T13:48:42.174Z,100337.80
2023-01-09T13:51:44.470Z,100343.15
2023-01-09T13:54:12.986Z,100332.96
2023-01-09T13:57:19.334Z,100332.98
2023-01-09T13:59:48.632Z,100327.23
2023-01-09T14:02:35.626Z,100329.39
2023-01-09T14:05:10.656Z,100327.27
2023-01-09T14:07:51.459Z,100324.41
2023-01-09T14:10:24.516Z,100325.53
2023-01-09T14:12:57.067Z,100326.48
2023-01-09T14:15:45.023Z,100324.02
2023-01-09T14:18:35.889Z,100320.30
2023-01-09T14:21:11.489Z,100315.72
2023-01-09T14:24:07.215Z,100309.67
2023-01-09T14:26:56.716Z,100315.52
2023-01-09T14:29:29.530Z,100312.84
2023-01-09T14:32:23.259Z,100308.92
2023-01-09T14:35:15.493Z,100302.33
2023-01-09T14:38:00.036Z,100303.16
2023-01-09T14:40:28.624Z,100306.35
2023-01-09T14:43:12.318Z,100305.25
2023-01-09T14:45:47.976Z,100308.43
2023-01-09T14:48:18.479Z,100311.02
2023-01-09T14:50:56.043Z,100310.71
2023-01-09T14:53:28.922Z,100312.49
2023-01-09T14:56:00.391Z,100308.88
2023-01-09T14:58:38.172Z,100308.84
2023-01-09T15:01:12.606Z,100313.70
2023-01-09T15:04:13.831Z,100309.90
2023-01-09T15:06:43.637Z,100308.15
2023-01-09T15:09:36.844Z,100309.83
2023-01-09T15:12:10.335Z,100303.73
2023-01-09T15:14:46.073Z,100303.41
2023-01-09T15:17:43.533Z,100309.86
2023-01-09T15:20:29.303Z,100310.47
2023-01-09T15:23:04.416Z,100316.31
2023-01-09T15:25:38.816Z,100314.52
2023-01-09T15:28:31.049Z,100309.74
2023-01-09T15:31:11.889Z,100315.84
2023-01-09T15:33:41.723Z,100320.11
2023-01-09T15:36:24.256Z,100325.27
2023-01-09T15:38:54.520Z,100321.48
2023-01-09T15:41:47.978Z,100330.70
2023-01-09T15:44:30.402Z,100335.91
2023-01-09T15:47:01.215Z,100340.73
2023-01-09T15:49:30.331Z,100336.23
2023-01-09T15:51:59.957Z,100332.27
2023-01-09T15:54:32.513Z,100336.71
2023-01-09T15:57:35.586Z,100327.48
2023-01-09T16:00:28.929Z,100333.89
2023-01-09T16:03:09.983Z,100327.16
2023-01-09T16:05:49.448Z,100325.98
2023-01-09T16:08:31.583Z,100323.33
2023-01-09T16:11:05.490Z,100316.48
2023-01-09T16:13:43.736Z,100312.94
2023-01-09T16:16:13.149Z,100313.15
2023-01-09T16:18:53.697Z,100314.86
2023-01-09T16:21:35.665Z,100317.67
2023-01-09T16:24:26.988Z,100314.44
2023-01-09T16:27:30.942Z,100306.52
2023-01-09T16:30:01.068Z,100311.98
2023-01-09T16:32:33.010Z,100313.10
2023-01-09T16:35:15.841Z,100310.38
2023-01-09T16:37:44.449Z,100318.55
2023-01-09T16:40:18.801Z,100316.90
2023-01-09T16:43:01.482Z,100315.73
2023-01-09T16:45:39.055Z,100314.84
2023-01-09T16:48:13.957Z,100316.59
2023-01-09T16:50:42.942Z,100317.55
2023-01-09T16:53:19.717Z,100314.60
2023-01-09T16:55:49.329Z,100318.13
2023-01-09T16:58:35.477Z,100314.48
2023-01-09T17:01:04.121Z,100313.42
2023-01-09T17:03:33.208Z,100315.75
2023-01-09T17:06:03.788Z,100317.63
2023-01-09T17:08:36.067Z,100316.05
2023-01-09T17:11:05.277Z,100311.99
2023-01-09T17:13:33.749Z,100307.20
2023-01-09T17:16:02.857Z,100307.22
2023-01-09T17:18:31.323Z,100304.94
2023-01-09T17:20:59.882Z,100304.74
2023-01-09T17:23:29.003Z,100311.23
2023-01-09T17:26:18.583Z,100315.22
2023-01-09T17:28:50.745Z,100314.45
2023-01-09T17:31:19.576Z,100321.64
2023-01-09T17:33:48.350Z,100327.48
2023-01-09T17:36:23.227Z,100331.39
2023-01-09T17:38:55.127Z,100333.59
2023-01-09T17:41:26.443Z,100333.48
2023-01-09T17:43:56.140Z,100328.02
2023-01-09T17:46:43.310Z,100323.28
2023-01-09T17:49:18.955Z,100319.94
2023-01-09T17:51:47.657Z,100319.58
2023-01-09T17:54:16.186Z,100324.51
2023-01-09T17:56:51.162Z,100322.19
2023-01-09T17:59:19.762Z,100320.74
2023-01-09T18:01:48.458Z,100326.23
2023-01-09T18:04:17.067Z,100317.52
2023-01-09T18:06:45.758Z,100322.44
2023-01-09T18:09:17.371Z,100316.23
2023-01-09T18:11:46.135Z,100323.44
2023-01-09T18:14:15.538Z,100315.21
2023-01-09T18:16:45.521Z,100319.55
2023-01-09T18:19:14.196Z,100316.52
2023-01-09T18:21:42.703Z,100315.11
2023-01-09T18:24:11.183Z,100311.93
2023-01-09T18:26:39.683Z,100317.32
2023-01-09T18:29:09.425Z,100321.04
2023-01-09T18:31:38.686Z,100321.41
2023-01-09T18:34:07.734Z,100326.80
2023-01-09T18:36:36.510Z,100326.86
2023-01-09T18:39:07.235Z,100330.04
2023-01-09T18:41:36.213Z,100328.00
2023-01-09T18:44:04.796Z,100333.41
2023-01-09T18:46:33.448Z,100334.73
2023-01-09T19:00:20.798Z,100340.25
2023-01-09T19:02:48.048Z,100336.49
2023-01-09T19:05:15.562Z,100337.80
2023-01-09T19:07:42.737Z,100327.51
2023-01-09T19:10:10.976Z,100330.73
2023-01-09T19:12:38.091Z,100328.24
2023-01-09T19:15:11.048Z,100326.16
2023-01-09T19:17:39.229Z,100324.67
2023-01-09T19:20:07.817Z,100330.55
2023-01-09T19:22:34.972Z,100322.16
2023-01-09T19:25:02.059Z,100326.65
2023-01-09T19:27:29.945Z,100327.73
2023-01-09T19:29:57.112Z,100331.55
2023-01-09T19:32:24.213Z,100332.99
2023-01-09T19:34:51.369Z,100341.49
2023-01-09T19:37:18.589Z,100336.65
2023-01-09T19:39:46.367Z,100334.78
2023-01-09T19:42:14.041Z,100336.30
2023-01-09T19:44:43.672Z,100339.02
2023-01-09T19:47:11.447Z,100340.29
2023-01-09T19:49:38.824Z,100337.36
2023-01-09T19:52:06.028Z,100336.91
2023-01-09T19:54:33.166Z,100335.71
2023-01-09T19:57:00.273Z,100332.76
2023-01-09T19:59:27.385Z,100336.14
2023-01-09T20:01:54.950Z,100328.31
2023-01-09T20:04:22.893Z,100335.70
2023-01-09T20:06:50.072Z,100335.65
2023-01-09T20:09:26.821Z,100329.02
2023-01-09T20:11:54.023Z,100331.96
2023-01-09T20:14:22.003Z,100332.45
2023-01-09T20:16:50.351Z,100334.36
2023-01-09T20:19:17.657Z,100334.64
2023-01-09T20:21:44.822Z,100333.36
2023-01-09T20:24:14.725Z,100341.09
2023-01-09T20:26:41.864Z,100337.42
2023-01-09T20:29:09.075Z,100339.87
2023-01-09T20:31:36.576Z,100337.30
2023-01-09T20:34:04.327Z,100341.81
2023-01-09T20:36:32.151Z,100349.34
2023-01-09T20:39:03.069Z,100342.84
2023-01-09T20:41:30.981Z,100342.63
2023-01-09T20:44:06.390Z,100347.91
2023-01-09T20:46:37.626Z,100345.77
2023-01-09T20:49:07.008Z,100346.07
2023-01-09T20:51:36.239Z,100340.89
2023-01-09T20:54:03.592Z,100334.33
2023-01-09T20:56:31.545Z,100327.27
2023-01-09T20:59:00.225Z,100324.77
2023-01-09T21:01:28.388Z,100325.13
2023-01-09T21:03:56.412Z,100330.98
2023-01-09T21:06:25.565Z,100322.64
2023-01-09T21:08:52.845Z,100333.35
2023-01-09T21:11:21.324Z,100333.35
2023-01-09T21:13:49.432Z,100332.23
2023-01-09T21:16:20.741Z,100333.46
2023-01-09T21:18:48.308Z,100335.23
2023-01-09T21:21:26.555Z,100326.88
2023-01-09T21:23:57.430Z,100323.89
2023-01-09T21:26:28.393Z,100319.06
2023-01-09T21:28:58.023Z,100316.51
2023-01-09T21:31:33.437Z,100317.83
2023-01-09T21:34:04.384Z,100319.98
2023-01-09T21:36:32.127Z,100324.60
2023-01-09T21:38:59.647Z,100323.60
2023-01-09T21:41:44.994Z,100330.80
2023-01-09T21:44:31.326Z,100328.67
2023-01-09T21:47:02.817Z,100325.44
2023-01-09T21:49:34.523Z,100332.85
2023-01-09T21:52:05.837Z,100333.38
2023-01-09T21:54:33.428Z,100328.73
2023-01-09T21:57:01.521Z,100326.77
2023-01-09T21:59:28.792Z,100326.09
2023-01-09T22:01:55.963Z,100321.14
2023-01-09T22:04:26.183Z,100317.84
2023-01-09T22:06:54.578Z,100316.82
2023-01-09T22:09:22.136Z,100313.50
2023-01-09T22:11:49.311Z,100315.16
2023-01-09T22:14:18.311Z,100313.75
2023-01-09T22:16:46.172Z,100316.25
2023-01-09T22:19:17.399Z,100315.30
2023-01-09T22:21:45.118Z,100321.34
2023-01-09T22:24:14.934Z,100321.55
2023-01-09T22:26:43.028Z,100314.13
2023-01-09T22:29:10.144Z,100310.95
2023-01-09T22:31:39.263Z,100308.16
2023-01-09T22:34:06.416Z,100307.28
2023-01-09T22:36:33.616Z,100297.19
2023-01-09T22:39:00.799Z,100298.80
2023-01-09T22:41:29.905Z,100299.16
2023-01-09T22:43:57.906Z,100293.50
2023-01-09T22:46:25.687Z,100294.77
2023-01-09T22:48:52.843Z,100295.58
2023-01-09T22:51:21.422Z,100301.59
2023-01-09T22:53:49.628Z,100301.73
2023-01-09T22:56:19.988Z,100303.61
2023-01-09T22:58:52.217Z,100298.55
2023-01-09T23:01:20.846Z,100297.52
2023-01-09T23:03:48.210Z,100293.66
2023-01-09T23:06:21.459Z,100291.56
2023-01-09T23:08:50.376Z,100287.98
2023-01-09T23:11:46.321Z,100284.17
2023-01-09T23:14:13.868Z,100285.92
2023-01-09T23:16:41.488Z,100283.65
2023-01-09T23:19:12.244Z,100283.48
2023-01-09T23:21:39.704Z,100280.95
2023-01-09T23:24:07.539Z,100279.73
2023-01-09T23:26:36.544Z,100276.55
2023-01-09T23:29:06.959Z,100275.44
2023-01-09T23:31:36.493Z,100279.69
2023-01-09T23:34:07.420Z,100271.60
2023-01-09T23:36:35.581Z,100276.01
2023-01-09T23:39:03.675Z,100276.51
2023-01-09T23:42:29.391Z,100280.68
2023-01-09T23:44:56.552Z,100285.92
2023-01-09T23:47:23.672Z,100284.70
2023-01-09T23:49:50.992Z,100281.31
2023-01-09T23:52:18.176Z,100277.55
2023-01-09T23:54:45.354Z,100270.98
2023-01-09T23:57:12.521Z,100270.44
2023-01-09T23:59:39.532Z,100272.45
